createdAt,value
2022-12-08T00:02:09.573Z,5.65
2022-12-08T00:04:58.453Z,5.68
2022-12-08T00:07:44.570Z,5.37
2022-12-08T00:10:46.561Z,5.89
2022-12-08T00:13:02.034Z,6.08
2022-12-08T00:15:30.374Z,6.14
2022-12-08T00:18:00.333Z,5.87
2022-12-08T00:20:28.705Z,6.02
2022-12-08T00:22:57.447Z,6.26
2022-12-08T00:25:25.770Z,6.06
2022-12-08T00:27:54.089Z,6.18
2022-12-08T00:30:22.597Z,6.45
2022-12-08T00:32:51.135Z,6.31
2022-12-08T00:35:21.184Z,6.23
2022-12-08T00:37:49.498Z,6.06
2022-12-08T00:40:18.232Z,6.15
2022-12-08T00:42:46.706Z,5.68
2022-12-08T00:45:15.040Z,6.38
2022-12-08T00:47:43.568Z,6.28
2022-12-08T00:50:13.434Z,5.84
2022-12-08T00:52:43.410Z,6.49
2022-12-08T00:55:11.933Z,6.33
2022-12-08T00:57:40.357Z,6.59
2022-12-08T01:00:10.283Z,6.51
2022-12-08T01:02:38.880Z,6.70
2022-12-08T01:05:08.915Z,6.58
2022-12-08T01:07:37.712Z,6.63
2022-12-08T01:10:09.800Z,6.31
2022-12-08T01:12:38.149Z,6.56
2022-12-08T01:15:07.998Z,6.46
2022-12-08T01:17:38.201Z,6.32
2022-12-08T01:20:09.174Z,6.22
2022-12-08T01:22:37.518Z,6.23
2022-12-08T01:25:08.120Z,6.25
2022-12-08T01:27:36.401Z,6.16
2022-12-08T01:30:06.664Z,5.48
2022-12-08T01:32:35.324Z,5.76
2022-12-08T01:35:03.937Z,5.96
2022-12-08T01:37:32.555Z,5.96
2022-12-08T01:40:01.112Z,6.02
2022-12-08T01:42:32.417Z,5.57
2022-12-08T01:45:04.765Z,5.87
2022-12-08T01:47:40.273Z,6.01
2022-12-08T01:50:14.527Z,5.78
2022-12-08T01:52:49.407Z,5.25
2022-12-08T01:55:24.288Z,6.12
2022-12-08T01:57:58.849Z,5.90
2022-12-08T02:00:27.497Z,5.86
2022-12-08T02:03:01.555Z,5.97
2022-12-08T02:05:33.783Z,5.90
2022-12-08T02:08:06.794Z,5.85
2022-12-08T02:10:39.465Z,5.78
2022-12-08T02:13:13.712Z,5.80
2022-12-08T02:15:53.060Z,5.72
2022-12-08T02:18:50.469Z,5.85
2022-12-08T02:21:35.118Z,5.87
2022-12-08T02:24:15.773Z,5.88
2022-12-08T02:27:29.251Z,6.08
2022-12-08T02:30:25.389Z,6.16
2022-12-08T02:33:32.167Z,6.33
2022-12-08T02:36:08.550Z,6.23
2022-12-08T02:38:48.988Z,6.26
2022-12-08T02:41:30.266Z,6.24
2022-12-08T02:44:05.845Z,6.35
2022-12-08T02:46:40.705Z,6.14
2022-12-08T02:49:10.220Z,5.98
2022-12-08T02:51:40.138Z,6.09
2022-12-08T02:54:09.031Z,6.12
2022-12-08T02:56:59.263Z,6.12
2022-12-08T02:59:42.119Z,6.07
2022-12-08T03:02:29.944Z,5.30
2022-12-08T03:05:07.890Z,5.77
2022-12-08T03:07:45.929Z,6.17
2022-12-08T03:10:24.194Z,6.03
2022-12-08T03:13:00.361Z,6.03
2022-12-08T03:15:31.016Z,5.85
2022-12-08T03:18:01.466Z,6.07
2022-12-08T03:20:33.298Z,6.09
2022-12-08T03:23:08.757Z,6.12
2022-12-08T03:25:43.555Z,6.16
2022-12-08T03:28:12.770Z,6.06
2022-12-08T03:30:45.332Z,6.20
2022-12-08T03:33:21.348Z,6.27
2022-12-08T03:35:50.194Z,6.39
2022-12-08T03:38:20.187Z,6.18
2022-12-08T03:41:09.087Z,6.44
2022-12-08T03:43:37.900Z,6.55
2022-12-08T03:46:06.785Z,6.71
2022-12-08T03:48:35.305Z,6.59
2022-12-08T03:51:03.823Z,6.36
2022-12-08T03:53:33.634Z,6.83
2022-12-08T03:56:02.100Z,6.48
2022-12-08T03:58:35.807Z,6.89
2022-12-08T04:01:05.668Z,6.53
2022-12-08T04:03:34.246Z,6.31
2022-12-08T04:06:02.645Z,6.26
2022-12-08T04:08:31.016Z,6.58
2022-12-08T04:11:01.044Z,6.70
2022-12-08T04:13:29.892Z,6.78
2022-12-08T04:15:58.589Z,6.88
2022-12-08T04:18:26.906Z,6.63
2022-12-08T04:20:55.786Z,6.76
2022-12-08T04:23:24.637Z,6.94
2022-12-08T04:25:53.391Z,7.03
2022-12-08T04:28:23.508Z,6.80
2022-12-08T04:30:52.081Z,6.84
2022-12-08T04:33:20.530Z,6.85
2022-12-08T04:35:48.971Z,6.53
2022-12-08T04:38:18.023Z,6.43
2022-12-08T04:40:46.501Z,6.24
2022-12-08T04:43:14.932Z,6.16
2022-12-08T04:45:45.097Z,6.04
2022-12-08T04:48:13.690Z,6.36
2022-12-08T04:50:44.180Z,6.17
2022-12-08T04:53:14.048Z,6.13
2022-12-08T04:55:44.195Z,6.39
2022-12-08T04:58:14.866Z,6.41
2022-12-08T05:00:45.098Z,6.37
2022-12-08T05:03:14.693Z,6.32
2022-12-08T05:05:43.790Z,6.13
2022-12-08T05:08:12.573Z,5.95
2022-12-08T05:10:41.048Z,6.21
2022-12-08T05:13:09.943Z,6.18
2022-12-08T05:15:38.318Z,6.03
2022-12-08T05:18:08.652Z,6.33
2022-12-08T05:20:37.507Z,6.32
2022-12-08T05:23:05.836Z,6.25
2022-12-08T05:25:34.134Z,6.43
2022-12-08T05:28:32.811Z,6.49
2022-12-08T05:30:51.317Z,6.40
2022-12-08T05:33:21.028Z,6.33
2022-12-08T05:35:49.506Z,6.40
2022-12-08T05:38:17.910Z,6.22
2022-12-08T05:40:46.369Z,6.40
2022-12-08T05:43:14.882Z,6.40
2022-12-08T05:45:43.373Z,6.54
2022-12-08T05:48:12.111Z,6.45
2022-12-08T05:50:46.559Z,6.35
2022-12-08T05:53:16.042Z,6.55
2022-12-08T05:55:44.670Z,6.47
2022-12-08T05:58:15.943Z,6.50
2022-12-08T06:00:44.419Z,6.61
2022-12-08T06:03:14.649Z,6.58
2022-12-08T06:05:46.464Z,6.42
2022-12-08T06:08:16.034Z,6.28
2022-12-08T06:10:46.236Z,6.39
2022-12-08T06:13:15.852Z,6.45
2022-12-08T06:15:44.315Z,6.48
2022-12-08T06:18:13.355Z,6.56
2022-12-08T06:20:43.226Z,6.61
2022-12-08T06:23:11.952Z,6.33
2022-12-08T06:25:40.640Z,6.48
2022-12-08T06:28:08.960Z,6.44
2022-12-08T06:30:38.874Z,6.53
2022-12-08T06:33:07.873Z,6.62
2022-12-08T06:35:36.202Z,6.73
2022-12-08T06:38:05.869Z,6.55
2022-12-08T06:40:34.153Z,6.61
2022-12-08T06:43:02.487Z,6.34
2022-12-08T06:45:30.995Z,6.35
2022-12-08T06:48:00.175Z,6.64
2022-12-08T06:50:28.671Z,6.58
2022-12-08T06:53:04.757Z,6.48
2022-12-08T06:55:58.693Z,6.32
2022-12-08T06:58:25.126Z,6.14
2022-12-08T07:00:53.782Z,5.39
2022-12-08T07:03:22.782Z,5.69
2022-12-08T07:05:51.188Z,6.01
2022-12-08T07:08:19.935Z,5.87
2022-12-08T07:10:52.380Z,5.82
2022-12-08T07:13:20.776Z,5.74
2022-12-08T07:15:49.125Z,5.62
2022-12-08T07:18:17.600Z,5.15
2022-12-08T07:20:46.033Z,5.47
2022-12-08T07:23:14.589Z,5.59
2022-12-08T07:25:42.919Z,5.49
2022-12-08T07:28:13.568Z,5.50
2022-12-08T07:30:42.972Z,5.55
2022-12-08T07:33:11.388Z,5.80
2022-12-08T07:35:41.155Z,6.01
2022-12-08T07:38:13.681Z,6.40
2022-12-08T07:40:42.288Z,6.52
2022-12-08T07:43:11.935Z,6.56
2022-12-08T07:45:41.929Z,6.51
2022-12-08T07:48:10.385Z,6.19
2022-12-08T07:50:38.930Z,6.13
2022-12-08T07:53:08.685Z,5.71
2022-12-08T07:55:41.405Z,5.70
2022-12-08T07:58:10.667Z,5.77
2022-12-08T08:00:40.948Z,5.82
2022-12-08T08:03:12.554Z,5.65
2022-12-08T08:05:41.101Z,5.80
2022-12-08T08:08:09.677Z,5.69
2022-12-08T08:10:38.266Z,5.83
2022-12-08T08:13:06.583Z,5.57
2022-12-08T08:15:35.352Z,5.52
2022-12-08T08:18:06.391Z,5.40
2022-12-08T08:20:35.048Z,5.43
2022-12-08T08:23:03.415Z,5.63
2022-12-08T08:25:31.780Z,5.43
2022-12-08T08:28:00.181Z,5.67
2022-12-08T08:30:28.484Z,5.70
2022-12-08T08:32:56.843Z,5.78
2022-12-08T08:35:26.942Z,6.00
2022-12-08T08:37:55.239Z,6.06
2022-12-08T08:40:24.457Z,5.69
2022-12-08T08:42:52.959Z,6.00
2022-12-08T08:45:21.362Z,6.13
2022-12-08T08:47:50.475Z,6.29
2022-12-08T08:50:19.219Z,6.16
2022-12-08T08:52:50.296Z,6.39
2022-12-08T08:55:19.587Z,6.35
2022-12-08T08:57:47.897Z,6.57
2022-12-08T09:00:18.052Z,6.46
2022-12-08T09:02:46.397Z,6.76
2022-12-08T09:05:15.032Z,6.65
2022-12-08T09:07:43.643Z,6.69
2022-12-08T09:10:13.632Z,6.94
2022-12-08T09:12:42.244Z,6.91
2022-12-08T09:15:11.332Z,7.07
2022-12-08T09:17:39.700Z,7.03
2022-12-08T09:20:10.289Z,7.01
2022-12-08T09:22:38.946Z,7.23
2022-12-08T09:25:08.167Z,7.12
2022-12-08T09:27:38.141Z,7.05
2022-12-08T09:30:08.817Z,6.97
2022-12-08T09:32:37.471Z,7.23
2022-12-08T09:35:06.510Z,7.10
2022-12-08T09:37:35.130Z,7.17
2022-12-08T09:40:03.918Z,7.12
2022-12-08T09:42:49.067Z,7.03
2022-12-08T09:45:19.812Z,7.05
2022-12-08T09:47:59.004Z,6.84
2022-12-08T09:50:34.806Z,6.83
2022-12-08T09:53:10.649Z,6.96
2022-12-08T09:55:46.000Z,6.98
2022-12-08T09:58:24.905Z,6.71
2022-12-08T10:00:54.259Z,7.08
2022-12-08T10:03:28.371Z,7.06
2022-12-08T10:06:08.710Z,6.89
2022-12-08T10:08:48.280Z,6.58
2022-12-08T10:11:27.845Z,6.73
2022-12-08T10:14:05.059Z,6.87
2022-12-08T10:16:40.289Z,6.87
2022-12-08T10:19:19.837Z,6.98
2022-12-08T10:21:49.285Z,6.84
2022-12-08T10:24:27.460Z,6.95
2022-12-08T10:26:56.436Z,6.68
2022-12-08T10:29:26.454Z,6.40
2022-12-08T10:31:55.132Z,6.01
2022-12-08T10:34:24.773Z,5.97
2022-12-08T10:36:56.192Z,6.01
2022-12-08T10:39:36.990Z,6.08
2022-12-08T10:42:18.504Z,6.29
2022-12-08T10:45:24.538Z,6.35
2022-12-08T10:48:03.513Z,6.46
2022-12-08T10:50:42.590Z,6.64
2022-12-08T10:53:17.320Z,6.66
2022-12-08T10:55:48.045Z,6.60
2022-12-08T10:58:31.698Z,6.76
2022-12-08T11:01:07.537Z,6.86
2022-12-08T11:03:40.447Z,6.82
2022-12-08T11:06:18.895Z,6.96
2022-12-08T11:08:52.940Z,6.93
2022-12-08T11:11:29.067Z,7.13
2022-12-08T11:13:58.157Z,6.92
2022-12-08T11:16:29.222Z,7.23
2022-12-08T11:18:59.498Z,6.83
2022-12-08T11:21:37.971Z,7.12
2022-12-08T11:24:24.788Z,7.22
2022-12-08T11:26:58.741Z,7.01
2022-12-08T11:29:28.569Z,7.01
2022-12-08T11:32:01.908Z,6.82
2022-12-08T11:34:37.850Z,6.74
2022-12-08T11:37:09.527Z,6.38
2022-12-08T11:39:45.672Z,6.63
2022-12-08T11:42:18.015Z,6.78
2022-12-08T11:44:54.605Z,6.54
2022-12-08T11:47:29.724Z,6.79
2022-12-08T11:50:19.836Z,7.00
2022-12-08T11:52:51.848Z,7.16
2022-12-08T11:55:37.337Z,7.42
2022-12-08T11:58:17.978Z,7.56
2022-12-08T12:00:46.573Z,7.63
2022-12-08T12:03:29.824Z,7.46
2022-12-08T12:06:53.317Z,7.53
2022-12-08T12:09:27.729Z,7.57
2022-12-08T12:12:17.068Z,7.52
2022-12-08T12:15:21.786Z,7.64
2022-12-08T12:17:54.276Z,7.30
2022-12-08T12:20:31.896Z,7.54
2022-12-08T12:23:06.321Z,7.67
2022-12-08T12:25:37.194Z,7.81
2022-12-08T12:28:09.400Z,7.87
2022-12-08T12:30:57.547Z,7.47
2022-12-08T12:33:26.577Z,7.60
2022-12-08T12:36:03.150Z,7.71
2022-12-08T12:38:53.948Z,7.80
2022-12-08T12:41:27.388Z,7.62
2022-12-08T12:44:44.585Z,7.52
2022-12-08T12:47:54.115Z,7.43
2022-12-08T12:50:45.993Z,7.34
2022-12-08T12:53:51.247Z,7.29
2022-12-08T12:56:56.713Z,7.21
2022-12-08T12:59:54.661Z,7.18
2022-12-08T13:02:27.030Z,7.10
2022-12-08T13:05:01.996Z,7.33
2022-12-08T13:07:34.173Z,7.47
2022-12-08T13:10:17.618Z,7.18
2022-12-08T13:12:47.299Z,6.79
2022-12-08T13:15:21.481Z,7.05
2022-12-08T13:17:50.980Z,6.87
2022-12-08T13:20:24.774Z,7.16
2022-12-08T13:23:30.469Z,6.96
2022-12-08T13:26:20.212Z,6.86
2022-12-08T13:29:23.777Z,7.01
2022-12-08T13:31:54.725Z,6.97
2022-12-08T13:34:41.282Z,6.45
2022-12-08T13:37:27.222Z,6.69
2022-12-08T13:40:01.725Z,6.58
2022-12-08T13:42:42.171Z,6.70
2022-12-08T13:45:39.816Z,6.48
2022-12-08T13:48:42.200Z,6.64
2022-12-08T13:55:00.683Z,6.36
2022-12-08T13:57:08.509Z,6.41
2022-12-08T13:59:45.610Z,6.30
2022-12-08T14:02:21.630Z,6.27
2022-12-08T14:07:41.465Z,6.33
2022-12-08T14:10:15.930Z,6.20
2022-12-08T14:12:53.272Z,6.13
2022-12-08T14:15:23.673Z,6.04
2022-12-08T14:17:57.984Z,5.93
2022-12-08T14:20:31.415Z,5.93
2022-12-08T14:23:00.763Z,5.84
2022-12-08T14:25:30.709Z,5.78
2022-12-08T14:28:02.802Z,5.55
2022-12-08T14:30:33.717Z,5.65
2022-12-08T14:33:04.175Z,5.59
2022-12-08T14:35:35.623Z,5.44
2022-12-08T14:38:06.875Z,5.63
2022-12-08T14:40:37.595Z,5.59
2022-12-08T14:43:18.227Z,5.73
2022-12-08T14:45:53.587Z,5.53
2022-12-08T14:48:27.324Z,5.58
2022-12-08T14:51:06.394Z,5.67
2022-12-08T14:53:41.700Z,5.62
2022-12-08T14:56:21.817Z,5.67
2022-12-08T14:58:52.923Z,5.26
2022-12-08T15:01:25.086Z,5.91
2022-12-08T15:03:55.539Z,5.57
2022-12-08T15:06:24.726Z,5.84
2022-12-08T15:08:58.856Z,5.38
2022-12-08T15:11:37.174Z,5.57
2022-12-08T15:14:05.684Z,5.40
2022-12-08T15:16:43.942Z,5.40
2022-12-08T15:19:28.940Z,5.50
2022-12-08T15:22:00.132Z,5.27
2022-12-08T15:24:31.939Z,5.22
2022-12-08T15:27:00.369Z,5.03
2022-12-08T15:29:31.453Z,4.70
2022-12-08T15:32:02.930Z,4.95
2022-12-08T15:34:31.910Z,4.72
2022-12-08T15:37:00.592Z,4.75
2022-12-08T15:39:34.015Z,4.59
2022-12-08T15:42:03.756Z,4.52
2022-12-08T15:44:32.981Z,4.68
2022-12-08T15:47:03.069Z,4.93
2022-12-08T15:49:31.501Z,4.91
2022-12-08T15:52:10.694Z,5.04
2022-12-08T15:54:40.256Z,4.86
2022-12-08T15:57:53.080Z,4.88
2022-12-08T16:07:04.751Z,4.50
2022-12-08T16:09:15.933Z,4.61
2022-12-08T16:12:07.193Z,4.40
2022-12-08T16:17:24.859Z,4.17
2022-12-08T16:19:57.192Z,4.37
2022-12-08T16:25:19.781Z,4.11
2022-12-08T16:28:29.585Z,4.31
2022-12-08T16:30:39.322Z,4.49
2022-12-08T16:33:07.865Z,4.29
2022-12-08T16:35:38.032Z,4.28
2022-12-08T16:38:06.516Z,4.04
2022-12-08T16:40:55.937Z,4.21
2022-12-08T16:43:23.464Z,4.22
2022-12-08T16:45:51.747Z,4.53
2022-12-08T16:48:20.623Z,4.50
2022-12-08T16:50:50.368Z,4.58
2022-12-08T16:53:18.985Z,4.51
2022-12-08T16:55:48.828Z,4.66
2022-12-08T16:58:18.606Z,4.54
2022-12-08T17:00:47.328Z,4.35
2022-12-08T17:03:17.701Z,4.53
2022-12-08T17:05:46.315Z,4.27
2022-12-08T17:08:16.259Z,4.41
2022-12-08T17:10:44.794Z,4.38
2022-12-08T17:13:16.856Z,4.23
2022-12-08T17:15:45.198Z,4.20
2022-12-08T17:18:13.760Z,4.28
2022-12-08T17:20:42.089Z,4.02
2022-12-08T17:23:10.730Z,4.31
2022-12-08T17:25:40.514Z,4.19
2022-12-08T17:28:08.985Z,4.19
2022-12-08T17:30:37.718Z,4.25
2022-12-08T17:33:06.081Z,4.20
2022-12-08T17:35:34.633Z,3.88
2022-12-08T17:38:03.030Z,3.89
2022-12-08T17:40:31.471Z,4.08
2022-12-08T17:43:01.170Z,4.00
2022-12-08T17:45:29.533Z,4.27
2022-12-08T17:47:58.012Z,4.02
2022-12-08T17:50:26.436Z,4.12
2022-12-08T17:52:54.792Z,4.27
2022-12-08T17:55:23.557Z,3.98
2022-12-08T17:57:51.946Z,4.06
2022-12-08T18:00:22.263Z,3.65
2022-12-08T18:02:51.075Z,3.92
2022-12-08T18:05:20.135Z,3.54
2022-12-08T18:07:48.800Z,3.75
2022-12-08T18:10:18.404Z,3.89
2022-12-08T18:12:47.352Z,4.09
2022-12-08T18:15:20.524Z,3.78
2022-12-08T18:17:50.422Z,3.93
2022-12-08T18:20:19.430Z,4.04
2022-12-08T18:22:47.834Z,4.07
2022-12-08T18:25:16.520Z,4.07
2022-12-08T18:27:45.513Z,2.80
2022-12-08T18:30:18.901Z,3.85
2022-12-08T18:32:47.493Z,3.94
2022-12-08T18:35:17.347Z,4.10
2022-12-08T18:37:47.159Z,3.93
2022-12-08T18:40:16.510Z,3.95
2022-12-08T18:42:44.987Z,4.29
2022-12-08T18:45:17.883Z,4.14
2022-12-08T18:47:50.858Z,4.20
2022-12-08T18:50:20.942Z,4.20
2022-12-08T18:52:49.710Z,4.09
2022-12-08T18:55:18.179Z,3.89
2022-12-08T18:57:46.937Z,3.83
2022-12-08T19:00:18.925Z,4.15
2022-12-08T19:02:47.499Z,4.11
2022-12-08T19:05:16.663Z,4.22
2022-12-08T19:07:46.978Z,4.19
2022-12-08T19:10:16.102Z,4.43
2022-12-08T19:12:44.440Z,4.56
2022-12-08T19:15:13.643Z,4.67
2022-12-08T19:17:42.228Z,4.73
2022-12-08T19:20:12.013Z,4.49
2022-12-08T19:22:40.584Z,4.63
2022-12-08T19:25:11.173Z,4.56
2022-12-08T19:27:39.627Z,4.45
2022-12-08T19:30:11.319Z,4.40
2022-12-08T19:32:39.772Z,4.29
2022-12-08T19:35:09.116Z,4.21
2022-12-08T19:37:37.776Z,4.05
2022-12-08T19:40:29.202Z,4.00
2022-12-08T19:43:14.416Z,3.82
2022-12-08T19:45:43.196Z,3.98
2022-12-08T19:48:12.885Z,4.05
2022-12-08T19:50:42.134Z,3.97
2022-12-08T19:53:14.535Z,3.93
2022-12-08T19:55:45.588Z,4.03
2022-12-08T19:58:14.983Z,4.00
2022-12-08T20:00:45.193Z,4.02
2022-12-08T20:03:17.015Z,4.14
2022-12-08T20:05:46.895Z,4.07
2022-12-08T20:08:16.107Z,3.99
2022-12-08T20:10:46.804Z,4.10
2022-12-08T20:13:32.725Z,4.10
2022-12-08T20:16:01.421Z,3.94
2022-12-08T20:18:30.274Z,3.34
2022-12-08T20:20:59.148Z,3.77
2022-12-08T20:23:27.521Z,3.43
2022-12-08T20:25:57.780Z,3.82
2022-12-08T20:28:26.396Z,3.73
2022-12-08T20:30:55.185Z,3.44
2022-12-08T20:33:23.803Z,3.20
2022-12-08T20:36:00.857Z,3.48
2022-12-08T20:38:30.245Z,3.40
2022-12-08T20:41:00.777Z,3.82
2022-12-08T20:43:29.392Z,3.85
2022-12-08T20:45:57.909Z,3.02
2022-12-08T20:48:26.432Z,3.47
2022-12-08T20:50:55.031Z,4.02
2022-12-08T20:53:23.785Z,4.20
2022-12-08T20:55:52.215Z,4.26
2022-12-08T20:58:24.676Z,4.32
2022-12-08T21:00:53.254Z,4.36
2022-12-08T21:03:22.015Z,4.53
2022-12-08T21:05:52.132Z,4.11
2022-12-08T21:08:25.066Z,4.23
2022-12-08T21:10:57.952Z,4.00
2022-12-08T21:13:27.924Z,4.35
2022-12-08T21:15:56.489Z,3.07
2022-12-08T21:18:26.036Z,4.08
2022-12-08T21:21:02.652Z,4.03
2022-12-08T21:23:31.343Z,4.08
2022-12-08T21:26:01.217Z,2.90
2022-12-08T21:28:31.263Z,3.48
2022-12-08T21:30:59.887Z,3.66
2022-12-08T21:33:28.483Z,3.64
2022-12-08T21:36:04.430Z,3.73
2022-12-08T21:38:33.649Z,3.48
2022-12-08T21:41:06.023Z,3.77
2022-12-08T21:43:36.152Z,3.21
2022-12-08T21:46:04.993Z,3.62
2022-12-08T21:48:33.487Z,3.57
2022-12-08T21:51:05.869Z,3.53
2022-12-08T21:53:34.330Z,2.70
2022-12-08T21:56:02.987Z,3.58
2022-12-08T21:58:32.799Z,3.64
2022-12-08T22:01:08.947Z,3.55
2022-12-08T22:03:37.991Z,3.68
2022-12-08T22:06:07.911Z,3.68
2022-12-08T22:08:36.834Z,3.85
2022-12-08T22:11:07.040Z,4.10
2022-12-08T22:13:36.054Z,4.07
2022-12-08T22:16:10.032Z,4.35
2022-12-08T22:18:39.665Z,4.10
2022-12-08T22:21:10.962Z,4.62
2022-12-08T22:23:39.697Z,4.41
2022-12-08T22:26:09.424Z,4.53
2022-12-08T22:28:40.689Z,4.38
2022-12-08T22:31:14.688Z,4.09
2022-12-08T22:33:44.508Z,4.63
2022-12-08T22:36:17.636Z,4.76
2022-12-08T22:38:46.383Z,4.92
2022-12-08T22:41:15.550Z,4.83
2022-12-08T22:43:44.823Z,4.79
2022-12-08T22:46:18.690Z,4.79
2022-12-08T22:48:47.971Z,4.42
2022-12-08T22:51:17.011Z,4.32
2022-12-08T22:53:46.184Z,4.23
2022-12-08T22:56:16.617Z,4.46
2022-12-08T22:58:45.551Z,4.05
2022-12-08T23:01:26.810Z,4.47
2022-12-08T23:03:55.715Z,4.35
2022-12-08T23:06:24.943Z,4.52
2022-12-08T23:08:54.243Z,4.19
2022-12-08T23:11:25.273Z,4.20
2022-12-08T23:13:53.826Z,4.60
2022-12-08T23:16:24.632Z,4.67
2022-12-08T23:18:53.762Z,4.85
2022-12-08T23:21:22.575Z,4.65
2022-12-08T23:23:51.145Z,4.89
2022-12-08T23:26:24.809Z,4.84
2022-12-08T23:28:53.499Z,4.80
2022-12-08T23:31:25.097Z,4.52
2022-12-08T23:33:55.099Z,5.04
2022-12-08T23:36:26.859Z,4.77
2022-12-08T23:38:56.008Z,4.91
2022-12-08T23:41:24.935Z,5.17
2022-12-08T23:43:54.141Z,5.31
2022-12-08T23:46:24.653Z,4.75
2022-12-08T23:48:53.299Z,5.26
2022-12-08T23:51:22.028Z,5.29
2022-12-08T23:53:50.536Z,5.22
2022-12-08T23:56:22.102Z,5.03
2022-12-08T23:58:52.007Z,4.63
